Time;durP1;ratioP1;P1;durP2;ratioP2;P2;SDS_P1;SDS_P2;PMS_P1;PMS_P2;Temp;Humidity;BMP_temperature;BMP_pressure;BME280_temperature;BME280_humidity;BME280_pressure;Samples;Min_cycle;Max_cycle;Signal;HPM_P1;HPM_P2
2022/01/16 00:07:42;;;;;;;60.20;25.60;;;;;;;0.91;67.69;99999.83;221295;1276;139199;-60
2022/01/16 00:12:49;;;;;;;62.10;27.50;;;;;;;0.92;67.66;99999.29;221322;1277;140214;-60
2022/01/16 00:18:07;;;;;;;52.60;24.60;;;;;;;0.93;67.63;100005.92;221217;1275;139366;-63
2022/01/16 00:23:10;;;;;;;55.30;26.10;;;;;;;0.89;67.49;99986.57;221058;1276;139844;-61
2022/01/16 00:28:13;;;;;;;46.20;22.70;;;;;;;0.87;67.70;99964.58;221320;1276;141230;-60
2022/01/16 00:33:17;;;;;;;46.10;21.50;;;;;;;0.82;67.62;99981.20;221356;1277;139687;-59
2022/01/16 00:38:20;;;;;;;43.60;19.10;;;;;;;0.77;67.88;99982.46;220984;1276;139101;-60
2022/01/16 00:43:23;;;;;;;41.60;18.00;;;;;;;0.78;68.09;99954.34;221297;1276;139862;-60
2022/01/16 00:48:26;;;;;;;38.00;17.80;;;;;;;0.86;68.44;99957.24;221375;1276;140408;-60
2022/01/16 00:53:29;;;;;;;42.20;18.60;;;;;;;0.95;68.47;99977.79;221455;1276;139403;-59
2022/01/16 00:58:32;;;;;;;45.70;18.80;;;;;;;1.01;68.46;99992.94;221202;1276;139603;-61
2022/01/16 01:03:35;;;;;;;45.10;20.00;;;;;;;1.04;68.40;99971.95;221338;1276;139801;-60
2022/01/16 01:08:38;;;;;;;42.80;20.40;;;;;;;1.00;68.27;99976.00;221047;1276;139291;-60
2022/01/16 01:13:57;;;;;;;44.10;21.00;;;;;;;0.95;68.13;99988.45;221356;1275;139167;-60
2022/01/16 01:19:00;;;;;;;46.80;22.50;;;;;;;0.91;68.10;99955.27;221374;1276;139620;-58
2022/01/16 01:24:03;;;;;;;46.10;20.30;;;;;;;0.90;68.33;99958.60;221353;1276;138838;-59
2022/01/16 01:29:06;;;;;;;47.70;20.80;;;;;;;0.91;68.28;99947.42;221308;1276;140996;-59
2022/01/16 01:34:09;;;;;;;49.00;22.50;;;;;;;0.96;68.20;99954.72;221354;1276;139876;-60
2022/01/16 01:39:12;;;;;;;50.40;22.90;;;;;;;1.02;68.23;99849.67;221258;1277;139916;-59
2022/01/16 01:54:59;;;;;;;45.80;21.00;;;;;;;0.91;67.84;99840.86;221250;1276;141195;-58
2022/01/16 02:00:04;;;;;;;48.40;23.80;;;;;;;0.82;67.90;99862.77;221541;1276;138973;-63
2022/01/16 02:05:09;;;;;;;47.30;24.20;;;;;;;0.76;67.73;99866.33;221233;1276;139007;-56
2022/01/16 02:10:12;;;;;;;48.70;24.10;;;;;;;0.70;67.90;99860.96;221350;1276;139121;-59
2022/01/16 02:31:26;;;;;;;62.90;27.60;;;;;;;0.56;68.32;99889.54;221238;1276;139574;-57
2022/01/16 02:36:35;;;;;;;59.70;28.40;;;;;;;0.61;68.44;99899.46;221333;1276;139440;-58
2022/01/16 02:41:39;;;;;;;64.10;30.80;;;;;;;0.63;68.72;99896.82;221279;1276;140217;-60
2022/01/16 02:46:44;;;;;;;74.80;33.80;;;;;;;0.66;68.75;99904.13;221180;1276;140236;-58
2022/01/16 02:51:49;;;;;;;66.50;30.20;;;;;;;0.69;68.87;99887.00;221335;1277;139163;-60
2022/01/16 02:56:52;;;;;;;70.80;33.70;;;;;;;0.70;68.76;99890.65;221336;1277;140318;-59
2022/01/16 03:01:55;;;;;;;69.50;33.80;;;;;;;0.72;68.84;99885.40;221392;1276;140648;-61
2022/01/16 03:07:01;;;;;;;72.40;33.20;;;;;;;0.76;68.99;99889.73;221216;1276;138805;-60
2022/01/16 03:12:07;;;;;;;71.70;34.20;;;;;;;0.80;68.88;99890.05;221375;1276;139582;-60
2022/01/16 03:17:11;;;;;;;69.70;33.90;;;;;;;0.89;69.02;99879.66;221138;1276;139175;-57
2022/01/16 03:22:15;;;;;;;76.60;37.20;;;;;;;0.93;68.74;99873.86;221359;1276;139995;-58
2022/01/16 03:27:19;;;;;;;76.00;36.30;;;;;;;0.95;69.03;99871.22;221278;1276;139388;-59
2022/01/16 03:32:23;;;;;;;63.10;31.30;;;;;;;0.98;68.76;99864.73;221272;1275;138689;-60
2022/01/16 03:37:26;;;;;;;64.40;33.50;;;;;;;0.90;68.69;99856.59;220870;1276;139427;-59
2022/01/16 03:42:33;;;;;;;62.30;32.90;;;;;;;0.80;68.55;99846.73;221349;1277;139622;-59
2022/01/16 03:47:36;;;;;;;71.50;35.70;;;;;;;0.71;68.50;99834.60;221332;1277;139392;-57
2022/01/16 03:52:39;;;;;;;73.40;36.00;;;;;;;0.65;68.72;99829.59;221004;1276;138886;-61
2022/01/16 03:57:42;;;;;;;82.90;36.80;;;;;;;0.62;68.91;99822.63;221248;1276;140780;-61
2022/01/16 04:02:45;;;;;;;88.10;40.30;;;;;;;0.58;68.74;99817.42;221353;1276;138843;-60
2022/01/16 04:07:48;;;;;;;83.50;39.90;;;;;;;0.56;68.73;99812.39;221006;1277;251864;-61
2022/01/16 04:12:51;;;;;;;91.40;42.70;;;;;;;0.59;68.91;99813.05;221325;1276;139992;-61
2022/01/16 04:17:54;;;;;;;85.50;43.40;;;;;;;0.66;69.05;99811.23;221448;1276;139836;-61
2022/01/16 04:22:57;;;;;;;84.50;42.50;;;;;;;0.75;69.03;99810.64;221238;1276;140386;-61
2022/01/16 04:28:01;;;;;;;95.40;44.90;;;;;;;0.80;69.02;99810.93;221686;1277;138959;-60
2022/01/16 04:33:04;;;;;;;105.80;44.70;;;;;;;0.81;68.93;99810.56;221327;1276;139102;-59
2022/01/16 04:38:07;;;;;;;100.10;46.90;;;;;;;0.81;68.98;99802.36;221218;1276;139052;-60
2022/01/16 04:48:35;;;;;;;114.30;54.50;;;;;;;0.69;68.51;99790.96;221209;1277;139429;-61
2022/01/16 04:53:39;;;;;;;117.60;50.60;;;;;;;0.61;68.46;99796.09;221172;1277;140805;-59
2022/01/16 04:58:43;;;;;;;107.00;50.70;;;;;;;0.60;68.85;99805.36;221077;1277;141721;-61
2022/01/16 05:03:46;;;;;;;108.50;49.90;;;;;;;0.59;68.75;99788.95;221337;1277;138937;-60
2022/01/16 05:08:49;;;;;;;113.90;53.20;;;;;;;0.59;68.66;99775.33;221324;1276;139888;-57
2022/01/16 05:18:55;;;;;;;119.80;53.70;;;;;;;0.64;68.55;99766.91;221347;1276;139787;-60
2022/01/16 05:23:58;;;;;;;108.40;50.00;;;;;;;0.57;68.41;99767.85;221463;1276;138755;-61
2022/01/16 05:29:02;;;;;;;118.30;52.70;;;;;;;0.47;68.14;99764.63;221503;1277;138987;-60
2022/01/16 05:34:05;;;;;;;104.30;48.10;;;;;;;0.44;68.51;99762.05;221116;1274;139104;-60
2022/01/16 05:39:09;;;;;;;108.10;47.60;;;;;;;0.41;68.41;99754.57;221435;1276;139452;-60
2022/01/16 05:44:12;;;;;;;105.40;47.80;;;;;;;0.31;68.07;99749.08;221414;1276;140239;-59
2022/01/16 05:49:16;;;;;;;117.40;49.90;;;;;;;0.18;67.99;99736.98;221482;1276;139875;-60
2022/01/16 05:54:19;;;;;;;111.20;47.70;;;;;;;0.06;68.20;99743.88;221322;1276;139433;-60
2022/01/16 05:59:22;;;;;;;115.80;49.50;;;;;;;-0.08;68.20;99745.55;221235;1276;139610;-58
2022/01/16 06:04:25;;;;;;;114.20;50.20;;;;;;;-0.14;68.10;99747.69;221369;1276;140282;-59
2022/01/16 06:09:28;;;;;;;107.70;49.20;;;;;;;-0.10;68.45;99749.06;221196;1276;140444;-61
2022/01/16 06:14:31;;;;;;;109.10;50.50;;;;;;;-0.05;68.63;99754.60;221339;1274;139711;-60
2022/01/16 06:19:34;;;;;;;115.60;47.40;;;;;;;-0.02;68.61;99754.40;221128;1276;139718;-60
2022/01/16 06:24:36;;;;;;;98.60;45.40;;;;;;;-0.11;68.32;99750.80;221317;1276;141292;-59
2022/01/16 06:29:39;;;;;;;93.70;43.10;;;;;;;-0.17;68.39;99745.27;221433;1277;139594;-60
2022/01/16 06:34:42;;;;;;;84.70;41.00;;;;;;;-0.19;68.25;99740.23;221146;1276;139038;-60
2022/01/16 06:39:46;;;;;;;88.50;41.00;;;;;;;-0.23;68.31;99735.03;221317;1276;139524;-60
2022/01/16 06:44:49;;;;;;;81.50;42.00;;;;;;;-0.22;68.40;99733.80;221339;1276;139111;-60
2022/01/16 06:49:52;;;;;;;87.70;42.40;;;;;;;-0.18;68.36;99730.29;221380;1275;139620;-59
2022/01/16 06:54:55;;;;;;;87.00;41.20;;;;;;;-0.24;67.99;99724.59;221327;1276;139140;-58
2022/01/16 06:59:58;;;;;;;91.60;42.40;;;;;;;-0.34;68.06;99725.36;221187;1276;139470;-61
2022/01/16 07:05:02;;;;;;;94.80;43.70;;;;;;;-0.39;68.04;99721.02;221449;1276;139593;-62
2022/01/16 07:10:06;;;;;;;87.20;42.00;;;;;;;-0.42;68.02;99715.81;221096;1277;139730;-61
2022/01/16 07:15:10;;;;;;;95.10;43.20;;;;;;;-0.41;68.07;99714.06;220889;1275;140051;-59
2022/01/16 07:20:14;;;;;;;91.70;43.10;;;;;;;-0.41;68.02;99700.98;221329;1276;139189;-59
2022/01/16 07:25:17;;;;;;;92.20;44.90;;;;;;;-0.32;68.35;99690.98;220896;1277;139199;-59
2022/01/16 07:30:20;;;;;;;104.90;47.70;;;;;;;-0.21;68.46;99688.46;221453;1276;139222;-60
2022/01/16 07:35:24;;;;;;;105.20;47.00;;;;;;;-0.16;68.32;99690.34;221380;1276;140833;-54
2022/01/16 07:40:40;;;;;;;103.50;46.50;;;;;;;-0.12;68.38;99687.86;221253;1276;139406;-58
2022/01/16 07:45:43;;;;;;;99.20;46.10;;;;;;;-0.04;68.58;99693.89;221180;1276;139269;-58
2022/01/16 07:50:47;;;;;;;97.70;44.90;;;;;;;0.00;68.32;99694.92;221318;1276;139569;-57
2022/01/16 07:55:49;;;;;;;102.90;46.20;;;;;;;0.01;68.18;99688.98;221302;1276;139608;-57
2022/01/16 08:00:52;;;;;;;98.90;45.50;;;;;;;-0.04;68.17;99688.66;221234;1276;140321;-58
2022/01/16 08:05:56;;;;;;;102.10;45.70;;;;;;;0.02;68.68;99683.73;221112;1275;139284;-61
2022/01/16 08:10:59;;;;;;;93.50;43.50;;;;;;;0.15;68.35;99679.06;221211;1274;139453;-57
2022/01/16 08:16:05;;;;;;;99.40;47.00;;;;;;;0.22;68.09;99670.80;221327;1275;140602;-57
2022/01/16 08:21:09;;;;;;;119.40;51.10;;;;;;;0.20;67.85;99664.20;220945;1276;139663;-60
2022/01/16 08:26:12;;;;;;;133.00;55.20;;;;;;;0.23;68.13;99657.88;221334;1276;140512;-62
2022/01/16 08:31:15;;;;;;;140.00;54.30;;;;;;;0.25;67.97;99657.17;221250;1276;139541;-57
2022/01/16 08:36:18;;;;;;;130.90;56.70;;;;;;;0.23;68.02;99648.27;221217;1276;139765;-60
2022/01/16 08:41:22;;;;;;;139.40;56.00;;;;;;;0.29;68.17;99636.19;221460;1277;139173;-60
2022/01/16 08:46:25;;;;;;;138.80;57.90;;;;;;;0.27;67.91;99617.89;221113;1276;139218;-58
2022/01/16 08:51:28;;;;;;;148.70;60.30;;;;;;;0.28;68.27;99608.46;221222;1276;139039;-60
2022/01/16 08:56:32;;;;;;;141.70;61.10;;;;;;;0.36;68.32;99598.42;221138;1276;140300;-58
2022/01/16 09:01:35;;;;;;;158.90;60.40;;;;;;;0.37;68.24;99592.30;221342;1277;139184;-59
2022/01/16 09:06:38;;;;;;;177.90;67.70;;;;;;;0.40;68.13;99591.36;221327;1276;140563;-59
2022/01/16 09:11:41;;;;;;;179.20;68.60;;;;;;;0.50;68.03;99581.66;221329;1276;138962;-58
2022/01/16 09:16:44;;;;;;;170.60;67.60;;;;;;;0.58;68.37;99572.67;221208;1276;141521;-58
2022/01/16 09:21:47;;;;;;;154.70;63.00;;;;;;;0.69;68.50;99559.93;221104;1277;139307;-59
2022/01/16 09:26:54;;;;;;;156.70;64.60;;;;;;;0.79;68.16;99548.81;221233;1276;140028;-60
2022/01/16 09:31:57;;;;;;;170.90;67.80;;;;;;;0.86;68.20;99538.05;221046;1276;139028;-62
2022/01/16 09:37:04;;;;;;;148.60;61.70;;;;;;;0.96;68.34;99519.20;221141;1276;139282;-62
2022/01/16 09:42:08;;;;;;;121.10;55.40;;;;;;;1.02;68.25;99518.25;221285;1276;139362;-59
2022/01/16 09:47:11;;;;;;;117.50;52.90;;;;;;;1.10;68.21;99516.00;220889;1276;139868;-61
2022/01/16 09:52:14;;;;;;;111.90;50.10;;;;;;;1.14;68.01;99509.64;221321;1275;139333;-60
2022/01/16 09:57:18;;;;;;;115.60;50.90;;;;;;;1.18;67.99;99495.08;221336;1276;139401;-59
2022/01/16 10:02:20;;;;;;;106.40;48.80;;;;;;;1.22;67.95;99492.59;221222;1276;139503;-60
2022/01/16 10:07:24;;;;;;;107.40;48.50;;;;;;;1.31;68.10;99478.61;221221;1276;139219;-59
2022/01/16 10:12:27;;;;;;;107.00;50.20;;;;;;;1.45;68.30;99473.63;221284;1276;139800;-59
2022/01/16 10:17:30;;;;;;;123.20;52.60;;;;;;;1.60;68.23;99462.54;221285;1276;139425;-57
2022/01/16 10:22:45;;;;;;;108.40;49.20;;;;;;;1.76;68.19;99453.84;221219;1276;139272;-57
2022/01/16 10:27:48;;;;;;;113.50;50.60;;;;;;;1.96;68.11;99451.84;221282;1276;139364;-60
2022/01/16 10:32:51;;;;;;;112.90;51.20;;;;;;;2.16;68.11;99449.33;221299;1275;139862;-59
2022/01/16 10:37:57;;;;;;;99.30;46.80;;;;;;;2.35;68.13;99448.21;221337;1276;141203;-59
2022/01/16 10:43:05;;;;;;;98.10;48.20;;;;;;;2.54;67.99;99437.80;221041;1277;139369;-60
2022/01/16 10:48:11;;;;;;;102.70;48.90;;;;;;;2.71;67.89;99420.25;221454;1276;140028;-59
2022/01/16 10:53:17;;;;;;;111.20;46.70;;;;;;;2.91;67.85;99408.36;220731;1277;140002;-61
2022/01/16 10:58:26;;;;;;;;;;;;;;;3.10;67.49;99394.23;221263;1274;141684;-60
2022/01/16 11:03:37;;;;;;;97.70;46.80;;;;;;;3.24;67.46;99388.73;221457;1276;124762;-61
2022/01/16 11:08:43;;;;;;;103.00;46.60;;;;;;;3.32;67.09;99382.23;220928;1276;138902;-59
2022/01/16 11:13:46;;;;;;;94.30;45.90;;;;;;;3.32;66.85;99365.74;220958;1276;139428;-61
2022/01/16 11:18:51;;;;;;;98.50;47.50;;;;;;;3.32;66.70;99361.02;221220;1276;139571;-59
2022/01/16 11:28:58;;;;;;;90.80;44.30;;;;;;;3.34;66.75;99342.03;221312;1276;140060;-61
2022/01/16 11:34:01;;;;;;;93.00;46.70;;;;;;;3.37;66.53;99346.52;221302;1276;139253;-60
2022/01/16 11:39:06;;;;;;;96.00;46.40;;;;;;;3.42;66.56;99345.30;221191;1276;140793;-60
2022/01/16 11:44:28;;;;;;;86.50;46.40;;;;;;;3.50;66.46;99334.71;221368;1276;139521;-59
2022/01/16 11:49:40;;;;;;;106.00;46.50;;;;;;;3.60;66.42;99333.92;221203;1276;139223;-60
2022/01/16 11:54:49;;;;;;;97.60;45.80;;;;;;;3.66;66.44;99326.36;221084;1276;139230;-60
2022/01/16 12:00:14;;;;;;;98.00;47.30;;;;;;;3.78;66.48;99327.24;221252;1276;139166;-61
2022/01/16 12:05:22;;;;;;;94.00;47.60;;;;;;;3.92;66.71;99326.64;221315;1276;138701;-62
2022/01/16 12:10:55;;;;;;;66.70;33.60;;;;;;;4.04;66.28;99324.15;221128;1276;138885;-60
2022/01/16 12:16:33;;;;;;;64.50;31.70;;;;;;;4.27;65.38;99317.48;221059;1276;138729;-60
2022/01/16 12:21:36;;;;;;;56.90;29.20;;;;;;;4.47;64.33;99308.91;221303;1276;139212;-61
2022/01/16 12:26:39;;;;;;;61.00;30.00;;;;;;;4.68;63.83;99302.77;221366;1276;139595;-60
2022/01/16 12:31:42;;;;;;;59.20;29.90;;;;;;;4.80;63.31;99300.61;221237;1276;140728;-61
2022/01/16 12:36:45;;;;;;;56.60;26.90;;;;;;;4.83;62.99;99300.88;221158;1276;138507;-61
2022/01/16 12:41:52;;;;;;;55.70;25.50;;;;;;;4.88;62.65;99297.16;221283;1277;138832;-61
2022/01/16 12:46:56;;;;;;;55.20;26.10;;;;;;;4.94;62.17;99289.73;221134;1276;139513;-60
2022/01/16 12:52:00;;;;;;;49.20;21.50;;;;;;;4.97;62.24;99289.83;221228;1276;139131;-61
2022/01/16 12:57:04;;;;;;;40.00;19.70;;;;;;;5.04;61.58;99288.02;221248;1276;138991;-59
2022/01/16 13:02:22;;;;;;;37.10;18.20;;;;;;;5.10;61.17;99284.27;221308;1276;139132;-61
2022/01/16 13:07:25;;;;;;;37.20;17.70;;;;;;;5.11;60.80;99275.76;221378;1276;139636;-59
2022/01/16 13:12:30;;;;;;;36.80;17.70;;;;;;;5.13;60.28;99271.50;221256;1276;139118;-61
2022/01/16 13:17:33;;;;;;;36.50;19.00;;;;;;;5.13;59.84;99265.50;221273;1276;139761;-60
2022/01/16 13:22:37;;;;;;;38.80;18.90;;;;;;;5.14;59.83;99256.17;221138;1276;139381;-60
2022/01/16 13:27:44;;;;;;;45.90;20.50;;;;;;;5.11;59.52;99256.98;221351;1276;139250;-60
2022/01/16 13:32:47;;;;;;;44.20;21.60;;;;;;;5.08;59.57;99249.54;221183;1276;138907;-61
2022/01/16 13:37:52;;;;;;;42.50;20.70;;;;;;;5.07;59.76;99244.65;221203;1276;139057;-58
2022/01/16 13:43:05;;;;;;;53.20;23.40;;;;;;;5.05;59.03;99231.17;220962;1277;139746;-61
2022/01/16 13:48:12;;;;;;;51.90;25.00;;;;;;;5.00;59.38;99224.84;221467;1276;139623;-61
2022/01/16 13:53:17;;;;;;;47.80;23.50;;;;;;;4.97;59.27;99215.79;221215;1276;139065;-62
2022/01/16 13:58:23;;;;;;;52.90;24.30;;;;;;;4.92;58.98;99210.02;221245;1276;138784;-61
2022/01/16 14:03:29;;;;;;;53.40;23.60;;;;;;;4.86;58.89;99202.48;221327;1276;139493;-62
2022/01/16 14:08:38;;;;;;;;;;;;;;;4.83;58.87;99195.55;221316;1277;139776;-61
2022/01/16 14:13:58;;;;;;;46.30;22.80;;;;;;;4.81;58.86;99190.04;221394;1276;125207;-61
2022/01/16 14:24:08;;;;;;;50.40;23.80;;;;;;;4.82;58.77;99173.98;221318;1276;138976;-59
2022/01/16 14:29:13;;;;;;;52.50;24.70;;;;;;;4.82;58.77;99162.72;221183;1276;139830;-61
2022/01/16 14:34:17;;;;;;;52.40;26.00;;;;;;;4.77;58.57;99162.23;221306;1276;139872;-61
2022/01/16 14:39:22;;;;;;;62.70;28.10;;;;;;;4.69;58.59;99154.95;221202;1276;139457;-59
2022/01/16 14:44:47;;;;;;;57.60;28.30;;;;;;;4.61;58.42;99148.56;221310;1276;139355;-60
2022/01/16 14:49:50;;;;;;;55.30;27.80;;;;;;;4.59;58.20;99143.23;221291;1276;140026;-60
2022/01/16 14:54:54;;;;;;;60.90;28.20;;;;;;;4.52;58.38;99138.15;221338;1276;140059;-60
2022/01/16 14:59:57;;;;;;;59.80;28.60;;;;;;;4.49;58.34;99130.20;221449;1276;140745;-60
2022/01/16 15:05:01;;;;;;;61.80;30.00;;;;;;;4.47;58.27;99127.61;221045;1276;139247;-60
2022/01/16 15:10:04;;;;;;;65.10;28.40;;;;;;;4.42;58.56;99115.50;221108;1276;139209;-63
2022/01/16 15:15:09;;;;;;;67.30;30.80;;;;;;;4.39;58.60;99106.48;221233;1276;139082;-60
2022/01/16 15:20:20;;;;;;;65.60;32.50;;;;;;;4.36;58.72;99102.74;221317;1276;139221;-58
2022/01/16 15:25:24;;;;;;;61.90;29.90;;;;;;;4.34;58.59;99110.02;221181;1276;139223;-63
2022/01/16 15:30:27;;;;;;;73.00;30.30;;;;;;;4.30;58.50;99107.86;221177;1276;139627;-63
2022/01/16 15:35:36;;;;;;;74.40;30.00;;;;;;;4.29;58.48;99106.34;221292;1276;138547;-61
2022/01/16 15:40:40;;;;;;;65.70;29.60;;;;;;;4.25;58.62;99109.08;221195;1277;139090;-61
2022/01/16 15:45:45;;;;;;;62.00;30.90;;;;;;;4.20;58.55;99117.86;221279;1277;138835;-62
2022/01/16 15:50:48;;;;;;;;;;;;;;;4.15;58.43;99131.22;221073;1276;138762;-62
2022/01/16 15:56:07;;;;;;;61.40;28.70;;;;;;;4.08;58.62;99127.78;221371;1276;126135;-61
2022/01/16 16:01:10;;;;;;;61.30;30.30;;;;;;;4.04;58.54;99122.30;221372;1276;139284;-61
2022/01/16 16:06:13;;;;;;;65.40;31.30;;;;;;;4.03;58.39;99121.61;221299;1276;138823;-60
2022/01/16 16:11:17;;;;;;;60.40;31.30;;;;;;;4.00;58.20;99125.57;221320;1276;139298;-60
2022/01/16 16:16:19;;;;;;;66.30;31.40;;;;;;;4.00;58.35;99126.81;221303;1276;140270;-61
2022/01/16 16:21:23;;;;;;;67.30;31.90;;;;;;;3.98;58.50;99122.49;221381;1277;139281;-60
2022/01/16 16:26:26;;;;;;;60.50;30.60;;;;;;;3.94;58.34;99118.23;221138;1276;141034;-61
2022/01/16 16:31:31;;;;;;;69.90;31.60;;;;;;;3.90;57.92;99113.98;221234;1276;138954;-61
2022/01/16 16:36:35;;;;;;;66.10;31.00;;;;;;;3.83;58.24;99115.98;221273;1276;138800;-61
2022/01/16 16:41:44;;;;;;;62.30;30.30;;;;;;;3.82;58.17;99119.02;221393;1276;138950;-61
2022/01/16 16:46:47;;;;;;;72.60;32.30;;;;;;;3.81;58.30;99128.00;221152;1276;139107;-61
2022/01/16 16:51:51;;;;;;;63.00;30.10;;;;;;;3.82;58.19;99135.68;221215;1276;142060;-62
2022/01/16 16:56:55;;;;;;;60.40;29.80;;;;;;;3.80;58.29;99131.88;221277;1276;139281;-62
2022/01/16 17:01:58;;;;;;;57.50;28.90;;;;;;;3.78;58.22;99142.45;221380;1276;141333;-61
2022/01/16 17:07:01;;;;;;;55.80;27.40;;;;;;;3.80;58.23;99148.02;221427;1276;138738;-60
2022/01/16 17:12:05;;;;;;;52.40;27.30;;;;;;;3.80;58.21;99148.02;221407;1276;138898;-59
2022/01/16 17:17:12;;;;;;;55.50;26.20;;;;;;;3.80;58.27;99140.81;221288;1276;139523;-58
2022/01/16 17:22:18;;;;;;;53.00;25.10;;;;;;;3.79;58.50;99143.98;221373;1277;138625;-61
2022/01/16 17:27:21;;;;;;;50.30;25.40;;;;;;;3.78;58.51;99141.23;221207;1276;138822;-61
2022/01/16 17:32:25;;;;;;;47.30;24.20;;;;;;;3.78;58.68;99141.05;221345;1276;139350;-61
2022/01/16 17:37:28;;;;;;;44.00;21.60;;;;;;;3.80;58.71;99151.17;221344;1276;139128;-62
2022/01/16 17:42:31;;;;;;;43.20;21.20;;;;;;;3.78;58.98;99152.83;221296;1276;140124;-60
2022/01/16 17:47:36;;;;;;;42.30;20.50;;;;;;;3.78;59.05;99163.00;221285;1276;139492;-63
2022/01/16 17:52:39;;;;;;;34.70;18.10;;;;;;;3.76;59.12;99163.76;221217;1276;138774;-60
2022/01/16 17:57:43;;;;;;;31.20;16.20;;;;;;;3.78;59.36;99165.29;221264;1276;138974;-60
2022/01/16 18:02:46;;;;;;;36.20;17.40;;;;;;;3.79;59.38;99165.41;221334;1277;139046;-61
2022/01/16 18:07:49;;;;;;;38.40;17.40;;;;;;;3.82;59.51;99160.41;221316;1276;138655;-63
2022/01/16 18:12:52;;;;;;;28.10;15.90;;;;;;;3.83;59.41;99162.14;221323;1276;138687;-61
2022/01/16 18:18:12;;;;;;;34.00;16.30;;;;;;;3.79;59.49;99167.34;221335;1277;139650;-61
2022/01/16 18:23:19;;;;;;;34.10;17.30;;;;;;;3.75;59.50;99166.60;221258;1276;140251;-62
2022/01/16 18:28:24;;;;;;;30.60;16.90;;;;;;;3.75;59.78;99181.52;221242;1275;139116;-60
2022/01/16 18:33:27;;;;;;;31.40;16.40;;;;;;;3.72;59.77;99194.08;221213;1277;139215;-58
2022/01/16 18:38:30;;;;;;;32.50;17.20;;;;;;;3.69;59.91;99197.50;221105;1277;139488;-63
2022/01/16 18:43:34;;;;;;;36.20;17.10;;;;;;;3.69;59.94;99205.41;220984;1277;138904;-58
2022/01/16 18:48:39;;;;;;;29.90;15.60;;;;;;;3.66;60.23;99215.15;221126;1277;139093;-62
2022/01/16 18:53:42;;;;;;;28.10;14.50;;;;;;;3.69;60.12;99225.06;221386;1277;138791;-61
2022/01/16 18:58:46;;;;;;;25.40;13.10;;;;;;;3.69;60.44;99223.98;221149;1275;139002;-62
2022/01/16 19:03:49;;;;;;;26.70;14.10;;;;;;;3.69;60.33;99228.38;221290;1275;139516;-60
2022/01/16 19:08:53;;;;;;;28.60;13.10;;;;;;;3.70;60.22;99231.16;221280;1276;140526;-61
2022/01/16 19:13:56;;;;;;;25.50;13.10;;;;;;;3.66;60.32;99239.16;221307;1277;139156;-59
2022/01/16 19:18:59;;;;;;;27.50;13.70;;;;;;;3.63;60.64;99239.98;221258;1277;139460;-61
2022/01/16 19:24:03;;;;;;;26.10;13.20;;;;;;;3.60;60.63;99244.29;221362;1276;139002;-61
2022/01/16 19:29:06;;;;;;;27.50;15.40;;;;;;;3.54;60.79;99243.39;221135;1276;139054;-61
2022/01/16 19:34:09;;;;;;;28.20;14.90;;;;;;;3.49;60.78;99237.77;221256;1276;138869;-62
2022/01/16 19:39:12;;;;;;;30.20;16.10;;;;;;;3.46;61.22;99244.34;221238;1275;140271;-62
2022/01/16 19:44:16;;;;;;;27.70;15.60;;;;;;;3.42;61.06;99238.31;221301;1276;139546;-62
2022/01/16 19:49:20;;;;;;;29.40;15.80;;;;;;;3.39;61.31;99253.14;221329;1276;139018;-60
2022/01/16 19:54:23;;;;;;;32.20;18.30;;;;;;;3.32;61.58;99264.05;220517;1277;139668;-59
2022/01/16 19:59:26;;;;;;;30.00;17.20;;;;;;;3.25;61.63;99252.34;221400;1275;139976;-61
2022/01/16 20:04:29;;;;;;;36.80;18.30;;;;;;;3.17;61.88;99249.73;221280;1275;139082;-62
2022/01/16 20:09:32;;;;;;;34.90;18.60;;;;;;;3.13;62.18;99263.37;221140;1276;139572;-62
2022/01/16 20:14:35;;;;;;;32.80;18.90;;;;;;;3.19;62.36;99268.96;221163;1276;139377;-62
2022/01/16 20:19:38;;;;;;;34.40;17.50;;;;;;;3.26;62.42;99277.36;221246;1276;139322;-62
2022/01/16 20:24:41;;;;;;;31.40;18.40;;;;;;;3.30;62.33;99276.36;221321;1275;139789;-62
2022/01/16 20:29:44;;;;;;;33.50;19.90;;;;;;;3.33;62.56;99272.95;221383;1275;138842;-61
2022/01/16 20:34:47;;;;;;;37.40;20.80;;;;;;;3.30;62.33;99274.10;221291;1275;139144;-62
2022/01/16 20:39:50;;;;;;;37.00;19.00;;;;;;;3.25;62.41;99271.60;221203;1277;140117;-62
2022/01/16 20:44:53;;;;;;;41.40;21.90;;;;;;;3.16;62.36;99273.44;221378;1276;139461;-61
2022/01/16 20:49:56;;;;;;;38.00;19.70;;;;;;;3.08;62.70;99280.48;221361;1275;139769;-62
2022/01/16 20:55:00;;;;;;;37.50;18.80;;;;;;;3.06;62.79;99283.02;221149;1276;139380;-66
2022/01/16 21:00:06;;;;;;;36.30;19.50;;;;;;;3.01;63.02;99281.03;221393;1276;138611;-61
2022/01/16 21:05:09;;;;;;;34.80;19.40;;;;;;;2.98;63.07;99273.93;221288;1276;139310;-59
2022/01/16 21:10:12;;;;;;;40.40;21.70;;;;;;;2.96;63.08;99264.03;221208;1276;139778;-62
2022/01/16 21:15:15;;;;;;;35.00;19.90;;;;;;;3.00;63.20;99254.42;221195;1276;139787;-61
2022/01/16 21:20:18;;;;;;;39.00;21.40;;;;;;;3.01;63.11;99257.57;221168;1276;140373;-62
2022/01/16 21:25:21;;;;;;;35.00;20.30;;;;;;;2.95;63.26;99252.64;221363;1275;139566;-64
2022/01/16 21:30:28;;;;;;;39.70;21.30;;;;;;;2.94;63.41;99255.31;221367;1276;140206;-62
2022/01/16 21:35:31;;;;;;;40.60;22.50;;;;;;;2.89;63.55;99251.93;221166;1276;139446;-60
2022/01/16 21:40:37;;;;;;;38.00;19.30;;;;;;;2.80;63.56;99259.90;221213;1276;138693;-60
2022/01/16 21:45:42;;;;;;;35.70;20.10;;;;;;;2.68;63.84;99247.95;221221;1276;139443;-61
2022/01/16 21:50:46;;;;;;;35.50;20.30;;;;;;;2.66;64.20;99248.86;221232;1276;140051;-61
2022/01/16 21:55:49;;;;;;;35.70;21.10;;;;;;;2.62;64.27;99251.96;221286;1276;138992;-61
2022/01/16 22:01:12;;;;;;;37.20;20.60;;;;;;;2.60;64.47;99244.66;221157;1276;139496;-62
2022/01/16 22:06:16;;;;;;;36.20;20.40;;;;;;;2.58;64.67;99241.38;221384;1276;139498;-62
2022/01/16 22:11:21;;;;;;;35.70;21.20;;;;;;;2.55;64.60;99241.83;221279;1276;141443;-60
2022/01/16 22:16:24;;;;;;;32.90;17.90;;;;;;;2.55;64.86;99242.54;221245;1276;140486;-62
2022/01/16 22:21:27;;;;;;;36.00;19.20;;;;;;;2.59;65.04;99247.50;221317;1276;139320;-63
2022/01/16 22:26:32;;;;;;;32.80;19.00;;;;;;;2.64;64.98;99242.98;221198;1276;140111;-61
2022/01/16 22:31:35;;;;;;;32.90;19.40;;;;;;;2.57;64.90;99240.70;221271;1276;139401;-61
2022/01/16 22:36:39;;;;;;;33.00;18.40;;;;;;;2.51;65.44;99252.08;221244;1276;140371;-62
2022/01/16 22:41:42;;;;;;;30.60;17.60;;;;;;;2.46;65.58;99246.27;221407;1276;140433;-61
2022/01/16 22:46:46;;;;;;;30.20;16.50;;;;;;;2.46;65.82;99238.72;221441;1277;140634;-62
2022/01/16 22:51:49;;;;;;;29.90;17.70;;;;;;;2.49;66.15;99229.34;221243;1275;139222;-62
2022/01/16 22:56:54;;;;;;;30.60;17.10;;;;;;;2.48;66.00;99225.37;221314;1276;139785;-62
2022/01/16 23:01:58;;;;;;;29.90;18.00;;;;;;;2.47;66.43;99225.38;221353;1276;138999;-61
2022/01/16 23:07:01;;;;;;;34.50;19.30;;;;;;;2.41;66.47;99226.08;221424;1275;139249;-61
2022/01/16 23:12:05;;;;;;;30.80;16.70;;;;;;;2.35;66.74;99220.45;220996;1277;141511;-62
2022/01/16 23:17:08;;;;;;;21.50;13.80;;;;;;;2.31;66.98;99213.72;221198;1275;139611;-60
2022/01/16 23:22:11;;;;;;;27.30;15.10;;;;;;;2.32;67.07;99215.98;221015;1276;141221;-61
2022/01/16 23:27:15;;;;;;;26.40;15.10;;;;;;;2.31;67.19;99214.77;221411;1276;138977;-61
2022/01/16 23:32:18;;;;;;;25.90;15.10;;;;;;;2.34;67.42;99214.17;221248;1276;138962;-62
2022/01/16 23:37:24;;;;;;;26.40;16.00;;;;;;;2.31;67.37;99202.33;221324;1275;139245;-60
2022/01/16 23:42:27;;;;;;;25.00;14.00;;;;;;;2.34;67.48;99191.42;221288;1276;139270;-62
2022/01/16 23:47:30;;;;;;;22.20;12.30;;;;;;;2.32;67.58;99184.80;221427;1276;139269;-62
2022/01/16 23:52:33;;;;;;;22.90;12.40;;;;;;;2.29;67.62;99191.89;221265;1276;139261;-59